sensor_id;sensor_type;location;lat;lon;timestamp;pressure;altitude;pressure_sealevel;temperature;humidity
73842;BME280;62184;52.006;5.924;2023-03-12T00:00:53;100459.69;;;7.50;83.00
73842;BME280;62184;52.006;5.924;2023-03-12T00:03:20;100459.66;;;7.52;82.85
73842;BME280;62184;52.006;5.924;2023-03-12T00:05:46;100456.97;;;7.53;82.88
73842;BME280;62184;52.006;5.924;2023-03-12T00:08:13;100456.00;;;7.57;82.81
73842;BME280;62184;52.006;5.924;2023-03-12T00:10:42;100453.50;;;7.50;82.94
73842;BME280;62184;52.006;5.924;2023-03-12T00:13:08;100456.16;;;7.48;83.00
73842;BME280;62184;52.006;5.924;2023-03-12T00:15:35;100447.34;;;7.46;83.23
73842;BME280;62184;52.006;5.924;2023-03-12T00:18:03;100438.59;;;7.41;83.11
73842;BME280;62184;52.006;5.924;2023-03-12T00:20:29;100437.72;;;7.41;83.07
73842;BME280;62184;52.006;5.924;2023-03-12T00:22:56;100431.53;;;7.38;82.93
73842;BME280;62184;52.006;5.924;2023-03-12T00:25:22;100439.63;;;7.34;82.80
73842;BME280;62184;52.006;5.924;2023-03-12T00:27:51;100439.63;;;7.32;83.01
73842;BME280;62184;52.006;5.924;2023-03-12T00:30:18;100436.09;;;7.32;83.11
73842;BME280;62184;52.006;5.924;2023-03-12T00:32:44;100433.41;;;7.35;83.02
73842;BME280;62184;52.006;5.924;2023-03-12T00:35:11;100429.84;;;7.36;83.08
73842;BME280;62184;52.006;5.924;2023-03-12T00:37:37;100426.31;;;7.35;82.93
73842;BME280;62184;52.006;5.924;2023-03-12T00:40:06;100418.22;;;7.42;82.81
73842;BME280;62184;52.006;5.924;2023-03-12T00:42:33;100409.25;;;7.46;82.70
73842;BME280;62184;52.006;5.924;2023-03-12T00:45:02;100411.88;;;7.49;82.39
73842;BME280;62184;52.006;5.924;2023-03-12T00:47:29;100415.38;;;7.51;82.45
73842;BME280;62184;52.006;5.924;2023-03-12T00:49:55;100407.22;;;7.61;82.25
73842;BME280;62184;52.006;5.924;2023-03-12T00:52:21;100402.22;;;7.88;81.24
73842;BME280;62184;52.006;5.924;2023-03-12T00:54:48;100393.25;;;7.93;80.79
73842;BME280;62184;52.006;5.924;2023-03-12T00:57:14;100393.16;;;7.96;80.65
73842;BME280;62184;52.006;5.924;2023-03-12T00:59:41;100393.06;;;8.02;80.46
73842;BME280;62184;52.006;5.924;2023-03-12T01:02:10;100381.56;;;8.00;80.68
73842;BME280;62184;52.006;5.924;2023-03-12T01:04:36;100380.63;;;8.03;80.07
73842;BME280;62184;52.006;5.924;2023-03-12T01:07:03;100391.44;;;7.95;80.46
73842;BME280;62184;52.006;5.924;2023-03-12T01:09:30;100394.09;;;7.95;80.60
73842;BME280;62184;52.006;5.924;2023-03-12T01:11:56;100400.25;;;7.97;80.53
73842;BME280;62184;52.006;5.924;2023-03-12T01:14:23;100389.56;;;8.00;80.37
73842;BME280;62184;52.006;5.924;2023-03-12T01:16:49;100397.53;;;8.00;80.28
73842;BME280;62184;52.006;5.924;2023-03-12T01:19:18;100395.75;;;8.01;80.32
73842;BME280;62184;52.006;5.924;2023-03-12T01:21:45;100383.34;;;8.01;80.33
73842;BME280;62184;52.006;5.924;2023-03-12T01:24:11;100390.41;;;8.02;80.10
73842;BME280;62184;52.006;5.924;2023-03-12T01:26:38;100384.19;;;8.03;79.97
73842;BME280;62184;52.006;5.924;2023-03-12T01:29:04;100378.00;;;8.01;79.88
73842;BME280;62184;52.006;5.924;2023-03-12T01:31:31;100375.34;;;8.01;79.79
73842;BME280;62184;52.006;5.924;2023-03-12T01:33:57;100369.19;;;7.99;79.55
73842;BME280;62184;52.006;5.924;2023-03-12T01:36:27;100369.22;;;7.98;79.25
73842;BME280;62184;52.006;5.924;2023-03-12T01:38:56;100348.09;;;7.90;79.44
73842;BME280;62184;52.006;5.924;2023-03-12T01:41:26;100347.31;;;7.87;79.55
73842;BME280;62184;52.006;5.924;2023-03-12T01:43:54;100350.03;;;7.84;79.81
73842;BME280;62184;52.006;5.924;2023-03-12T01:46:27;100358.78;;;7.89;79.27
73842;BME280;62184;52.006;5.924;2023-03-12T01:48:57;100352.53;;;7.91;79.05
73842;BME280;62184;52.006;5.924;2023-03-12T01:51:31;100342.84;;;7.87;78.69
73842;BME280;62184;52.006;5.924;2023-03-12T01:54:05;100342.94;;;7.84;78.58
73842;BME280;62184;52.006;5.924;2023-03-12T01:56:34;100361.59;;;7.81;78.53
73842;BME280;62184;52.006;5.924;2023-03-12T01:59:06;100362.59;;;7.77;78.78
73842;BME280;62184;52.006;5.924;2023-03-12T02:01:36;100358.19;;;7.74;78.84
73842;BME280;62184;52.006;5.924;2023-03-12T02:04:04;100359.06;;;7.75;78.83
73842;BME280;62184;52.006;5.924;2023-03-12T02:06:37;100352.03;;;7.72;79.03
73842;BME280;62184;52.006;5.924;2023-03-12T02:09:09;100350.19;;;7.76;78.80
73842;BME280;62184;52.006;5.924;2023-03-12T02:11:37;100348.38;;;7.78;78.86
73842;BME280;62184;52.006;5.924;2023-03-12T02:14:04;100344.78;;;7.81;79.00
73842;BME280;62184;52.006;5.924;2023-03-12T02:16:31;100334.06;;;7.85;78.92
73842;BME280;62184;52.006;5.924;2023-03-12T02:18:59;100338.31;;;7.92;78.86
73842;BME280;62184;52.006;5.924;2023-03-12T02:21:29;100332.97;;;7.94;78.44
73842;BME280;62184;52.006;5.924;2023-03-12T02:24:04;100324.09;;;7.95;78.66
73842;BME280;62184;52.006;5.924;2023-03-12T02:26:41;100320.44;;;7.99;78.63
73842;BME280;62184;52.006;5.924;2023-03-12T02:29:08;100315.03;;;8.03;78.66
73842;BME280;62184;52.006;5.924;2023-03-12T02:31:40;100313.13;;;8.08;78.55
73842;BME280;62184;52.006;5.924;2023-03-12T02:34:09;100314.75;;;8.14;78.57
73842;BME280;62184;52.006;5.924;2023-03-12T02:36:36;100320.03;;;8.17;78.52
73842;BME280;62184;52.006;5.924;2023-03-12T02:39:02;100311.00;;;8.23;78.64
73842;BME280;62184;52.006;5.924;2023-03-12T02:41:31;100302.94;;;8.27;78.48
73842;BME280;62184;52.006;5.924;2023-03-12T02:44:07;100293.97;;;8.30;78.53
73842;BME280;62184;52.006;5.924;2023-03-12T02:46:39;100287.75;;;8.31;78.32
73842;BME280;62184;52.006;5.924;2023-03-12T02:49:09;100287.75;;;8.31;78.43
73842;BME280;62184;52.006;5.924;2023-03-12T02:51:36;100285.09;;;8.31;78.37
73842;BME280;62184;52.006;5.924;2023-03-12T02:54:03;100278.03;;;8.30;78.05
73842;BME280;62184;52.006;5.924;2023-03-12T02:56:30;100277.06;;;8.32;77.89
73842;BME280;62184;52.006;5.924;2023-03-12T02:58:56;100276.16;;;8.33;78.04
73842;BME280;62184;52.006;5.924;2023-03-12T03:01:26;100271.66;;;8.37;77.70
73842;BME280;62184;52.006;5.924;2023-03-12T03:03:53;100272.41;;;8.42;77.54
73842;BME280;62184;52.006;5.924;2023-03-12T03:06:20;100270.59;;;8.44;77.64
73842;BME280;62184;52.006;5.924;2023-03-12T03:08:46;100270.50;;;8.47;77.49
73842;BME280;62184;52.006;5.924;2023-03-12T03:11:13;100263.34;;;8.49;77.29
73842;BME280;62184;52.006;5.924;2023-03-12T03:13:39;100261.41;;;8.56;77.40
73842;BME280;62184;52.006;5.924;2023-03-12T03:16:06;100257.78;;;8.58;77.21
73842;BME280;62184;52.006;5.924;2023-03-12T03:18:36;100256.00;;;8.59;77.10
73842;BME280;62184;52.006;5.924;2023-03-12T03:21:05;100263.19;;;8.55;76.79
73842;BME280;62184;52.006;5.924;2023-03-12T03:23:33;100257.94;;;8.54;76.84
73842;BME280;62184;52.006;5.924;2023-03-12T03:26:00;100243.78;;;8.51;76.92
73842;BME280;62184;52.006;5.924;2023-03-12T03:28:28;100237.41;;;8.57;76.81
73842;BME280;62184;52.006;5.924;2023-03-12T03:30:56;100246.28;;;8.58;76.71
73842;BME280;62184;52.006;5.924;2023-03-12T03:33:23;100236.50;;;8.58;76.81
73842;BME280;62184;52.006;5.924;2023-03-12T03:35:53;100233.84;;;8.58;76.34
73842;BME280;62184;52.006;5.924;2023-03-12T03:38:19;100248.09;;;8.56;76.35
73842;BME280;62184;52.006;5.924;2023-03-12T03:40:46;100243.59;;;8.58;76.20
73842;BME280;62184;52.006;5.924;2023-03-12T03:43:12;100231.16;;;8.60;76.45
73842;BME280;62184;52.006;5.924;2023-03-12T03:45:39;100232.03;;;8.60;75.96
73842;BME280;62184;52.006;5.924;2023-03-12T03:48:05;100233.81;;;8.60;75.98
73842;BME280;62184;52.006;5.924;2023-03-12T03:50:32;100235.53;;;8.62;75.90
73842;BME280;62184;52.006;5.924;2023-03-12T03:53:01;100224.91;;;8.61;75.57
73842;BME280;62184;52.006;5.924;2023-03-12T03:55:27;100223.19;;;8.58;75.56
73842;BME280;62184;52.006;5.924;2023-03-12T03:57:53;100225.88;;;8.57;75.53
73842;BME280;62184;52.006;5.924;2023-03-12T04:00:20;100220.78;;;8.49;75.25
73842;BME280;62184;52.006;5.924;2023-03-12T04:02:47;100218.19;;;8.46;75.03
73842;BME280;62184;52.006;5.924;2023-03-12T04:05:13;100217.34;;;8.45;75.14
73842;BME280;62184;52.006;5.924;2023-03-12T04:07:40;100220.00;;;8.45;75.03
73842;BME280;62184;52.006;5.924;2023-03-12T04:10:10;100212.03;;;8.44;74.88
73842;BME280;62184;52.006;5.924;2023-03-12T04:12:37;100202.38;;;8.40;74.57
73842;BME280;62184;52.006;5.924;2023-03-12T04:15:04;100201.59;;;8.36;74.10
73842;BME280;62184;52.006;5.924;2023-03-12T04:17:31;100197.19;;;8.35;74.65
73842;BME280;62184;52.006;5.924;2023-03-12T04:19:58;100200.84;;;8.31;74.17
73842;BME280;62184;52.006;5.924;2023-03-12T04:22:24;100193.75;;;8.30;74.60
73842;BME280;62184;52.006;5.924;2023-03-12T04:24:51;100180.59;;;8.26;74.44
73842;BME280;62184;52.006;5.924;2023-03-12T04:27:20;100184.09;;;8.28;74.49
73842;BME280;62184;52.006;5.924;2023-03-12T04:29:46;100192.06;;;8.28;74.37
73842;BME280;62184;52.006;5.924;2023-03-12T04:32:12;100196.50;;;8.29;74.05
73842;BME280;62184;52.006;5.924;2023-03-12T04:34:39;100183.09;;;8.32;74.58
73842;BME280;62184;52.006;5.924;2023-03-12T04:37:06;100176.81;;;8.34;74.11
73842;BME280;62184;52.006;5.924;2023-03-12T04:39:33;100167.88;;;8.37;73.73
73842;BME280;62184;52.006;5.924;2023-03-12T04:42:00;100172.28;;;8.38;73.92
73842;BME280;62184;52.006;5.924;2023-03-12T04:44:28;100171.34;;;8.39;73.75
73842;BME280;62184;52.006;5.924;2023-03-12T04:46:55;100163.38;;;8.39;73.96
73842;BME280;62184;52.006;5.924;2023-03-12T04:49:21;100161.84;;;8.30;74.26
73842;BME280;62184;52.006;5.924;2023-03-12T04:51:48;100161.84;;;8.30;74.37
73842;BME280;62184;52.006;5.924;2023-03-12T04:54:14;100156.50;;;8.30;74.42
73842;BME280;62184;52.006;5.924;2023-03-12T04:56:41;100159.25;;;8.29;74.04
73842;BME280;62184;52.006;5.924;2023-03-12T04:59:07;100161.97;;;8.26;73.17
73842;BME280;62184;52.006;5.924;2023-03-12T05:01:37;100160.97;;;8.30;74.41
73842;BME280;62184;52.006;5.924;2023-03-12T05:04:04;100163.75;;;8.25;73.48
73842;BME280;62184;52.006;5.924;2023-03-12T05:06:31;100159.38;;;8.23;74.49
73842;BME280;62184;52.006;5.924;2023-03-12T05:08:59;100162.88;;;8.25;74.43
73842;BME280;62184;52.006;5.924;2023-03-12T05:11:25;100148.59;;;8.29;74.09
73842;BME280;62184;52.006;5.924;2023-03-12T05:13:52;100142.41;;;8.28;74.49
73842;BME280;62184;52.006;5.924;2023-03-12T05:16:18;100133.53;;;8.28;74.07
73842;BME280;62184;52.006;5.924;2023-03-12T05:18:48;100125.56;;;8.28;74.03
73842;BME280;62184;52.006;5.924;2023-03-12T05:21:16;100125.56;;;8.28;74.03
73842;BME280;62184;52.006;5.924;2023-03-12T05:23:45;100120.25;;;8.28;74.30
73842;BME280;62184;52.006;5.924;2023-03-12T05:26:17;100116.66;;;8.29;73.24
73842;BME280;62184;52.006;5.924;2023-03-12T05:28:45;100103.28;;;8.32;74.24
73842;BME280;62184;52.006;5.924;2023-03-12T05:31:13;100102.41;;;8.31;73.77
73842;BME280;62184;52.006;5.924;2023-03-12T05:33:41;100086.44;;;8.31;73.46
73842;BME280;62184;52.006;5.924;2023-03-12T05:36:11;100081.06;;;8.33;73.54
73842;BME280;62184;52.006;5.924;2023-03-12T05:38:39;100080.28;;;8.29;73.26
73842;BME280;62184;52.006;5.924;2023-03-12T05:41:06;100084.63;;;8.32;73.41
73842;BME280;62184;52.006;5.924;2023-03-12T05:43:32;100074.75;;;8.37;73.74
73842;BME280;62184;52.006;5.924;2023-03-12T05:46:00;100080.88;;;8.39;73.37
73842;BME280;62184;52.006;5.924;2023-03-12T05:48:27;100083.44;;;8.43;73.37
73842;BME280;62184;52.006;5.924;2023-03-12T05:50:55;100082.59;;;8.41;72.84
73842;BME280;62184;52.006;5.924;2023-03-12T05:53:24;100076.34;;;8.44;73.09
73842;BME280;62184;52.006;5.924;2023-03-12T05:55:50;100083.34;;;8.46;72.39
73842;BME280;62184;52.006;5.924;2023-03-12T05:58:16;100081.53;;;8.47;72.22
73842;BME280;62184;52.006;5.924;2023-03-12T06:00:43;100084.94;;;8.54;72.89
73842;BME280;62184;52.006;5.924;2023-03-12T06:03:10;100071.47;;;8.58;72.53
73842;BME280;62184;52.006;5.924;2023-03-12T06:05:37;100082.91;;;8.62;72.22
73842;BME280;62184;52.006;5.924;2023-03-12T06:08:04;100068.81;;;8.58;72.43
73842;BME280;62184;52.006;5.924;2023-03-12T06:10:36;100074.00;;;8.63;72.28
73842;BME280;62184;52.006;5.924;2023-03-12T06:13:03;100077.47;;;8.65;72.27
73842;BME280;62184;52.006;5.924;2023-03-12T06:15:29;100080.09;;;8.66;71.71
73842;BME280;62184;52.006;5.924;2023-03-12T06:17:56;100068.59;;;8.66;71.90
73842;BME280;62184;52.006;5.924;2023-03-12T06:20:23;100061.28;;;8.72;71.63
73842;BME280;62184;52.006;5.924;2023-03-12T06:22:49;100056.00;;;8.71;71.74
73842;BME280;62184;52.006;5.924;2023-03-12T06:25:16;100051.50;;;8.73;71.48
73842;BME280;62184;52.006;5.924;2023-03-12T06:27:45;100066.59;;;8.72;71.35
73842;BME280;62184;52.006;5.924;2023-03-12T06:30:12;100063.06;;;8.72;70.62
73842;BME280;62184;52.006;5.924;2023-03-12T06:32:40;100064.97;;;8.68;70.64
73842;BME280;62184;52.006;5.924;2023-03-12T06:35:07;100072.78;;;8.74;70.27
73842;BME280;62184;52.006;5.924;2023-03-12T06:37:34;100068.16;;;8.79;69.79
73842;BME280;62184;52.006;5.924;2023-03-12T06:40:00;100075.25;;;8.80;69.42
73842;BME280;62184;52.006;5.924;2023-03-12T06:42:27;100062.03;;;8.77;69.47
73842;BME280;62184;52.006;5.924;2023-03-12T06:44:56;100063.88;;;8.75;68.93
73842;BME280;62184;52.006;5.924;2023-03-12T06:47:22;100056.94;;;8.70;68.65
73842;BME280;62184;52.006;5.924;2023-03-12T06:49:49;100059.59;;;8.70;68.63
73842;BME280;62184;52.006;5.924;2023-03-12T06:52:15;100061.41;;;8.69;68.07
73842;BME280;62184;52.006;5.924;2023-03-12T06:54:42;100061.19;;;8.75;68.42
73842;BME280;62184;52.006;5.924;2023-03-12T06:57:08;100054.13;;;8.74;67.38
73842;BME280;62184;52.006;5.924;2023-03-12T06:59:35;100061.16;;;8.77;67.83
73842;BME280;62184;52.006;5.924;2023-03-12T07:02:04;100049.53;;;8.79;67.22
73842;BME280;62184;52.006;5.924;2023-03-12T07:04:31;100050.59;;;8.74;66.67
73842;BME280;62184;52.006;5.924;2023-03-12T07:06:57;100051.28;;;8.80;67.35
73842;BME280;62184;52.006;5.924;2023-03-12T07:09:24;100042.28;;;8.84;67.27
73842;BME280;62184;52.006;5.924;2023-03-12T07:11:50;100051.00;;;8.89;67.23
73842;BME280;62184;52.006;5.924;2023-03-12T07:14:16;100051.84;;;8.92;67.26
73842;BME280;62184;52.006;5.924;2023-03-12T07:16:43;100046.34;;;8.96;67.22
73842;BME280;62184;52.006;5.924;2023-03-12T07:19:12;100032.06;;;8.99;67.01
73842;BME280;62184;52.006;5.924;2023-03-12T07:21:39;100036.41;;;9.03;67.07
73842;BME280;62184;52.006;5.924;2023-03-12T07:24:06;100024.00;;;9.02;67.45
73842;BME280;62184;52.006;5.924;2023-03-12T07:26:33;100023.75;;;9.09;67.27
73842;BME280;62184;52.006;5.924;2023-03-12T07:28:59;100017.47;;;9.12;67.10
73842;BME280;62184;52.006;5.924;2023-03-12T07:31:26;100017.34;;;9.15;66.71
73842;BME280;62184;52.006;5.924;2023-03-12T07:33:53;100016.38;;;9.19;66.43
73842;BME280;62184;52.006;5.924;2023-03-12T07:36:22;100012.84;;;9.18;65.90
73842;BME280;62184;52.006;5.924;2023-03-12T07:38:48;100000.22;;;9.23;65.93
73842;BME280;62184;52.006;5.924;2023-03-12T07:41:15;100003.63;;;9.29;65.94
73842;BME280;62184;52.006;5.924;2023-03-12T07:43:41;99999.97;;;9.31;65.77
73842;BME280;62184;52.006;5.924;2023-03-12T07:46:08;100006.34;;;9.27;65.64
73842;BME280;62184;52.006;5.924;2023-03-12T07:48:34;99996.59;;;9.26;65.75
73842;BME280;62184;52.006;5.924;2023-03-12T07:51:01;99991.34;;;9.23;65.50
73842;BME280;62184;52.006;5.924;2023-03-12T07:53:30;99992.22;;;9.23;65.65
73842;BME280;62184;52.006;5.924;2023-03-12T07:55:56;99997.50;;;9.25;65.56
73842;BME280;62184;52.006;5.924;2023-03-12T07:58:22;99998.38;;;9.25;65.61
73842;BME280;62184;52.006;5.924;2023-03-12T08:00:49;99998.31;;;9.29;65.80
73842;BME280;62184;52.006;5.924;2023-03-12T08:03:15;100003.72;;;9.25;65.53
73842;BME280;62184;52.006;5.924;2023-03-12T08:05:42;100006.28;;;9.29;65.35
73842;BME280;62184;52.006;5.924;2023-03-12T08:08:08;100001.75;;;9.31;65.40
73842;BME280;62184;52.006;5.924;2023-03-12T08:10:37;100011.41;;;9.35;65.31
73842;BME280;62184;52.006;5.924;2023-03-12T08:13:04;100005.81;;;9.42;65.54
73842;BME280;62184;52.006;5.924;2023-03-12T08:15:30;100013.66;;;9.47;65.33
73842;BME280;62184;52.006;5.924;2023-03-12T08:17:57;100022.66;;;9.44;64.72
73842;BME280;62184;52.006;5.924;2023-03-12T08:20:23;100009.97;;;9.51;64.96
73842;BME280;62184;52.006;5.924;2023-03-12T08:22:49;100007.03;;;9.58;64.73
73842;BME280;62184;52.006;5.924;2023-03-12T08:25:16;100009.72;;;9.58;64.36
73842;BME280;62184;52.006;5.924;2023-03-12T08:27:45;100003.47;;;9.59;64.35
73842;BME280;62184;52.006;5.924;2023-03-12T08:30:12;100009.81;;;9.55;64.38
73842;BME280;62184;52.006;5.924;2023-03-12T08:32:39;100008.78;;;9.59;64.43
73842;BME280;62184;52.006;5.924;2023-03-12T08:35:06;100003.19;;;9.67;64.62
73842;BME280;62184;52.006;5.924;2023-03-12T08:37:33;99994.06;;;9.74;64.46
73842;BME280;62184;52.006;5.924;2023-03-12T08:39:59;100006.28;;;9.80;64.43
73842;BME280;62184;52.006;5.924;2023-03-12T08:42:26;100002.56;;;9.85;64.49
73842;BME280;62184;52.006;5.924;2023-03-12T08:44:55;99995.19;;;9.92;64.42
73842;BME280;62184;52.006;5.924;2023-03-12T08:47:21;100009.22;;;9.97;64.53
73842;BME280;62184;52.006;5.924;2023-03-12T08:49:48;100008.16;;;10.02;64.30
73842;BME280;62184;52.006;5.924;2023-03-12T08:52:14;100002.56;;;10.10;64.30
73842;BME280;62184;52.006;5.924;2023-03-12T08:54:41;100002.09;;;10.22;64.34
73842;BME280;62184;52.006;5.924;2023-03-12T08:57:07;100005.53;;;10.26;63.95
73842;BME280;62184;52.006;5.924;2023-03-12T08:59:34;100008.16;;;10.27;63.65
73842;BME280;62184;52.006;5.924;2023-03-12T09:02:04;100008.09;;;10.29;63.81
73842;BME280;62184;52.006;5.924;2023-03-12T09:04:31;99999.84;;;10.35;63.67
73842;BME280;62184;52.006;5.924;2023-03-12T09:06:59;99998.91;;;10.36;63.61
73842;BME280;62184;52.006;5.924;2023-03-12T09:09:25;100006.75;;;10.40;63.77
73842;BME280;62184;52.006;5.924;2023-03-12T09:11:52;100008.44;;;10.43;63.81
73842;BME280;62184;52.006;5.924;2023-03-12T09:14:18;100006.16;;;10.56;63.47
73842;BME280;62184;52.006;5.924;2023-03-12T09:16:45;100005.63;;;10.23;63.97
73842;BME280;62184;52.006;5.924;2023-03-12T09:19:14;100008.03;;;9.81;66.01
73842;BME280;62184;52.006;5.924;2023-03-12T09:21:41;100006.47;;;9.75;66.42
73842;BME280;62184;52.006;5.924;2023-03-12T09:24:09;100002.00;;;9.76;66.85
73842;BME280;62184;52.006;5.924;2023-03-12T09:26:36;100007.66;;;9.67;66.87
73842;BME280;62184;52.006;5.924;2023-03-12T09:29:02;100008.44;;;9.70;66.94
73842;BME280;62184;52.006;5.924;2023-03-12T09:31:29;100009.09;;;9.77;67.14
73842;BME280;62184;52.006;5.924;2023-03-12T09:33:55;100023.03;;;9.85;67.28
73842;BME280;62184;52.006;5.924;2023-03-12T09:36:24;100013.81;;;9.93;67.11
73842;BME280;62184;52.006;5.924;2023-03-12T09:38:51;100023.25;;;10.03;66.99
73842;BME280;62184;52.006;5.924;2023-03-12T09:41:19;100001.56;;;10.13;67.23
73842;BME280;62184;52.006;5.924;2023-03-12T09:43:51;99988.81;;;10.21;66.87
73842;BME280;62184;52.006;5.924;2023-03-12T09:46:25;100010.75;;;10.29;67.04
73842;BME280;62184;52.006;5.924;2023-03-12T09:49:01;100004.25;;;10.36;66.97
73842;BME280;62184;52.006;5.924;2023-03-12T09:51:36;99995.03;;;10.45;67.25
73842;BME280;62184;52.006;5.924;2023-03-12T09:54:14;99999.91;;;10.57;67.18
73842;BME280;62184;52.006;5.924;2023-03-12T09:56:50;100007.31;;;10.72;67.27
73842;BME280;62184;52.006;5.924;2023-03-12T09:59:19;100008.06;;;10.77;67.08
73842;BME280;62184;52.006;5.924;2023-03-12T10:01:51;100012.28;;;10.83;67.02
73842;BME280;62184;52.006;5.924;2023-03-12T10:04:40;100005.53;;;10.96;66.91
73842;BME280;62184;52.006;5.924;2023-03-12T10:07:16;100012.38;;;11.03;66.98
73842;BME280;62184;52.006;5.924;2023-03-12T10:09:59;100015.78;;;11.06;67.00
73842;BME280;62184;52.006;5.924;2023-03-12T10:12:43;100007.53;;;11.12;66.96
73842;BME280;62184;52.006;5.924;2023-03-12T10:15:33;100012.56;;;11.20;66.98
73842;BME280;62184;52.006;5.924;2023-03-12T10:18:17;99999.81;;;11.27;66.89
73842;BME280;62184;52.006;5.924;2023-03-12T10:21:13;100010.13;;;11.36;67.03
73842;BME280;62184;52.006;5.924;2023-03-12T10:23:58;100008.06;;;11.42;67.01
73842;BME280;62184;52.006;5.924;2023-03-12T10:26:36;100004.91;;;11.54;67.30
73842;BME280;62184;52.006;5.924;2023-03-12T10:29:10;100005.34;;;11.64;67.23
73842;BME280;62184;52.006;5.924;2023-03-12T10:31:48;100002.50;;;11.69;67.06
73842;BME280;62184;52.006;5.924;2023-03-12T10:34:24;99998.66;;;11.74;66.85
73842;BME280;62184;52.006;5.924;2023-03-12T10:36:58;99992.28;;;11.78;66.84
73842;BME280;62184;52.006;5.924;2023-03-12T10:39:31;99992.88;;;11.85;66.87
73842;BME280;62184;52.006;5.924;2023-03-12T10:41:59;99994.47;;;11.89;66.80
73842;BME280;62184;52.006;5.924;2023-03-12T10:44:26;99987.13;;;11.94;66.85
73842;BME280;62184;52.006;5.924;2023-03-12T10:47:03;99984.84;;;12.05;66.91
73842;BME280;62184;52.006;5.924;2023-03-12T10:49:36;99990.31;;;12.22;66.93
73842;BME280;62184;52.006;5.924;2023-03-12T10:52:09;99988.25;;;12.29;67.02
73842;BME280;62184;52.006;5.924;2023-03-12T10:54:45;99987.84;;;12.38;66.81
73842;BME280;62184;52.006;5.924;2023-03-12T10:57:15;99992.03;;;12.44;66.89
73842;BME280;62184;52.006;5.924;2023-03-12T10:59:43;99986.19;;;12.54;67.04
73842;BME280;62184;52.006;5.924;2023-03-12T11:02:28;99980.22;;;12.66;67.19
73842;BME280;62184;52.006;5.924;2023-03-12T11:05:00;99985.22;;;12.74;67.00
73842;BME280;62184;52.006;5.924;2023-03-12T11:07:44;99989.16;;;12.86;66.96
73842;BME280;62184;52.006;5.924;2023-03-12T11:10:21;99987.03;;;12.92;66.62
73842;BME280;62184;52.006;5.924;2023-03-12T11:13:01;99990.38;;;12.97;66.65
73842;BME280;62184;52.006;5.924;2023-03-12T11:15:36;99991.00;;;13.02;66.63
73842;BME280;62184;52.006;5.924;2023-03-12T11:18:33;99985.22;;;13.12;66.73
73842;BME280;62184;52.006;5.924;2023-03-12T11:21:16;99985.78;;;13.18;66.62
73842;BME280;62184;52.006;5.924;2023-03-12T11:23:46;99997.84;;;13.27;66.79
73842;BME280;62184;52.006;5.924;2023-03-12T11:26:33;99986.56;;;13.39;66.98
73842;BME280;62184;52.006;5.924;2023-03-12T11:29:05;99970.22;;;13.43;66.63
73842;BME280;62184;52.006;5.924;2023-03-12T11:31:47;99987.59;;;13.54;66.75
73842;BME280;62184;52.006;5.924;2023-03-12T11:34:21;99996.28;;;13.59;66.68
73842;BME280;62184;52.006;5.924;2023-03-12T11:36:59;100014.66;;;13.66;67.04
73842;BME280;62184;52.006;5.924;2023-03-12T11:39:46;100012.47;;;13.74;66.93
73842;BME280;62184;52.006;5.924;2023-03-12T11:42:37;100014.06;;;13.78;67.08
73842;BME280;62184;52.006;5.924;2023-03-12T11:45:17;100007.28;;;13.89;67.03
73842;BME280;62184;52.006;5.924;2023-03-12T11:48:00;100014.13;;;13.94;67.14
73842;BME280;62184;52.006;5.924;2023-03-12T11:50:48;100011.59;;;14.08;66.98
73842;BME280;62184;52.006;5.924;2023-03-12T11:53:48;99997.44;;;14.22;66.89
73842;BME280;62184;52.006;5.924;2023-03-12T11:56:28;100002.50;;;14.28;66.90
73842;BME280;62184;52.006;5.924;2023-03-12T11:59:21;99996.09;;;14.31;67.22
73842;BME280;62184;52.006;5.924;2023-03-12T12:02:12;99995.22;;;14.30;67.15
73842;BME280;62184;52.006;5.924;2023-03-12T12:05:09;99990.72;;;14.31;67.44
73842;BME280;62184;52.006;5.924;2023-03-12T12:07:59;99993.94;;;14.37;67.58
73842;BME280;62184;52.006;5.924;2023-03-12T12:10:48;99987.69;;;14.54;67.14
73842;BME280;62184;52.006;5.924;2023-03-12T12:13:28;99979.34;;;14.59;66.74
73842;BME280;62184;52.006;5.924;2023-03-12T12:16:18;99974.84;;;14.75;67.44
73842;BME280;62184;52.006;5.924;2023-03-12T12:19:02;99967.00;;;14.87;67.15
73842;BME280;62184;52.006;5.924;2023-03-12T12:22:00;99959.94;;;15.01;66.80
73842;BME280;62184;52.006;5.924;2023-03-12T12:24:43;99961.69;;;15.02;66.33
73842;BME280;62184;52.006;5.924;2023-03-12T12:27:26;99954.41;;;15.04;66.49
73842;BME280;62184;52.006;5.924;2023-03-12T12:30:06;99962.19;;;15.08;66.62
73842;BME280;62184;52.006;5.924;2023-03-12T12:33:02;99959.50;;;15.08;66.45
73842;BME280;62184;52.006;5.924;2023-03-12T12:35:42;99966.47;;;15.12;66.70
73842;BME280;62184;52.006;5.924;2023-03-12T12:38:12;99963.56;;;15.15;66.76
73842;BME280;62184;52.006;5.924;2023-03-12T12:40:47;99969.13;;;15.28;66.47
73842;BME280;62184;52.006;5.924;2023-03-12T12:43:24;99957.78;;;15.23;66.22
73842;BME280;62184;52.006;5.924;2023-03-12T12:45:55;99952.56;;;15.20;66.06
73842;BME280;62184;52.006;5.924;2023-03-12T12:48:31;99957.66;;;15.24;66.29
73842;BME280;62184;52.006;5.924;2023-03-12T12:51:03;99945.69;;;15.30;66.33
73842;BME280;62184;52.006;5.924;2023-03-12T12:53:38;99943.25;;;15.25;65.97
73842;BME280;62184;52.006;5.924;2023-03-12T12:56:17;99943.19;;;15.27;65.96
73842;BME280;62184;52.006;5.924;2023-03-12T12:59:04;99942.09;;;15.45;66.60
73842;BME280;62184;52.006;5.924;2023-03-12T13:01:47;99942.13;;;15.59;66.03
73842;BME280;62184;52.006;5.924;2023-03-12T13:04:23;99949.13;;;15.63;66.09
73842;BME280;62184;52.006;5.924;2023-03-12T13:06:56;99945.25;;;15.67;66.05
73842;BME280;62184;52.006;5.924;2023-03-12T13:09:38;99934.88;;;15.61;65.70
73842;BME280;62184;52.006;5.924;2023-03-12T13:12:14;99931.81;;;15.52;65.54
73842;BME280;62184;52.006;5.924;2023-03-12T13:14:46;99935.56;;;15.49;65.41
73842;BME280;62184;52.006;5.924;2023-03-12T13:17:30;99931.91;;;15.50;65.53